createdAt,value
2019-03-05T00:00:48.860Z,7.61
2019-03-05T00:01:48.852Z,7.56
2019-03-05T00:02:48.846Z,7.61
2019-03-05T00:03:48.839Z,7.58
2019-03-05T00:04:48.832Z,7.54
2019-03-05T00:05:48.833Z,7.58
2019-03-05T00:06:48.819Z,7.61
2019-03-05T00:07:48.812Z,7.56
2019-03-05T00:08:48.806Z,7.61
2019-03-05T00:09:48.799Z,7.66
2019-03-05T00:10:48.793Z,7.60
2019-03-05T00:11:48.788Z,7.56
2019-03-05T00:12:48.780Z,7.56
2019-03-05T00:13:48.774Z,7.57
2019-03-05T00:14:48.768Z,7.56
2019-03-05T00:15:48.759Z,7.60
2019-03-05T00:16:48.757Z,7.53
2019-03-05T00:17:48.747Z,7.56
2019-03-05T00:18:48.745Z,7.53
2019-03-05T00:19:48.734Z,7.57
2019-03-05T00:20:48.729Z,7.56
2019-03-05T00:21:48.721Z,7.57
2019-03-05T00:22:48.715Z,7.61
2019-03-05T00:23:48.714Z,7.58
2019-03-05T00:24:48.700Z,7.57
2019-03-05T00:25:48.695Z,7.54
2019-03-05T00:26:48.687Z,7.58
2019-03-05T00:27:48.680Z,7.63
2019-03-05T00:28:48.674Z,7.67
2019-03-05T00:29:48.669Z,7.60
2019-03-05T00:30:48.662Z,7.57
2019-03-05T00:31:48.654Z,7.50
2019-03-05T00:32:48.647Z,7.57
2019-03-05T00:33:48.641Z,7.66
2019-03-05T00:34:48.636Z,7.60
2019-03-05T00:35:48.628Z,7.66
2019-03-05T00:36:48.622Z,7.57
2019-03-05T00:37:48.616Z,7.58
2019-03-05T00:38:48.608Z,7.58
2019-03-05T00:39:48.603Z,7.61
2019-03-05T00:40:48.595Z,7.57
2019-03-05T00:41:48.592Z,7.56
2019-03-05T00:42:48.585Z,7.67
2019-03-05T00:43:48.576Z,7.61
2019-03-05T00:44:48.569Z,7.61
2019-03-05T00:45:48.563Z,7.70
2019-03-05T00:46:48.557Z,7.61
2019-03-05T00:47:48.548Z,7.66
2019-03-05T00:48:48.546Z,7.63
2019-03-05T00:49:48.541Z,7.57
2019-03-05T00:50:48.530Z,7.58
2019-03-05T00:51:48.522Z,7.66
2019-03-05T00:52:48.516Z,7.54
2019-03-05T00:53:48.509Z,7.58
2019-03-05T00:54:48.503Z,7.61
2019-03-05T00:55:49.887Z,7.57
2019-03-05T00:56:48.489Z,7.58
2019-03-05T00:57:48.484Z,7.54
2019-03-05T00:58:48.477Z,7.47
2019-03-05T00:59:48.469Z,7.53
2019-03-05T01:00:48.463Z,7.50
2019-03-05T01:01:48.456Z,7.54
2019-03-05T01:02:48.453Z,7.50
2019-03-05T01:03:48.444Z,7.53
2019-03-05T01:04:48.438Z,7.61
2019-03-05T01:05:48.431Z,7.50
2019-03-05T01:06:48.428Z,7.51
2019-03-05T01:07:48.419Z,7.56
2019-03-05T01:08:48.409Z,7.53
2019-03-05T01:09:48.404Z,7.54
2019-03-05T01:10:48.400Z,7.53
2019-03-05T01:11:48.390Z,7.47
2019-03-05T01:12:48.384Z,7.45
2019-03-05T01:13:48.376Z,7.48
2019-03-05T01:14:48.377Z,7.47
2019-03-05T01:15:48.362Z,7.42
2019-03-05T01:16:48.356Z,7.50
2019-03-05T01:17:48.350Z,7.51
2019-03-05T01:18:48.343Z,7.42
2019-03-05T01:19:48.336Z,7.47
2019-03-05T01:20:48.329Z,7.39
2019-03-05T01:21:48.324Z,7.38
2019-03-05T01:22:48.317Z,7.40
2019-03-05T01:23:48.311Z,7.43
2019-03-05T01:24:48.304Z,7.39
2019-03-05T01:25:48.297Z,7.45
2019-03-05T01:26:48.291Z,7.45
2019-03-05T01:27:48.285Z,7.43
2019-03-05T01:28:48.278Z,7.48
2019-03-05T01:29:48.272Z,7.54
2019-03-05T01:30:48.264Z,7.43
2019-03-05T01:31:48.258Z,7.48
2019-03-05T01:32:48.252Z,7.50
2019-03-05T01:33:48.245Z,7.40
2019-03-05T01:34:48.240Z,7.42
2019-03-05T01:35:48.232Z,7.47
2019-03-05T01:36:48.225Z,7.42
2019-03-05T01:37:48.233Z,7.35
2019-03-05T01:38:48.212Z,7.36
2019-03-05T01:39:48.205Z,7.45
2019-03-05T01:40:48.197Z,7.35
2019-03-05T01:41:48.191Z,7.39
2019-03-05T01:42:48.185Z,7.31
2019-03-05T01:43:48.178Z,7.39
2019-03-05T01:44:48.172Z,7.32
2019-03-05T01:45:48.167Z,7.28
2019-03-05T01:46:48.159Z,7.31
2019-03-05T01:47:48.203Z,7.28
2019-03-05T01:48:48.146Z,7.31
2019-03-05T01:49:48.138Z,7.29
2019-03-05T01:50:48.132Z,7.31
2019-03-05T01:51:48.124Z,7.40
2019-03-05T01:52:48.118Z,7.33
2019-03-05T01:53:48.112Z,7.38
2019-03-05T01:54:48.107Z,7.28
2019-03-05T01:55:48.099Z,7.23
2019-03-05T01:56:48.093Z,7.33
2019-03-05T01:57:48.091Z,7.29
2019-03-05T01:58:48.080Z,7.23
2019-03-05T01:59:48.072Z,7.17
2019-03-05T02:00:48.087Z,7.28
2019-03-05T02:01:48.061Z,7.25
2019-03-05T02:02:48.053Z,7.17
2019-03-05T02:03:48.046Z,7.25
2019-03-05T02:04:48.038Z,7.31
2019-03-05T02:05:48.033Z,7.33
2019-03-05T02:06:48.025Z,7.29
2019-03-05T02:07:48.018Z,7.32
2019-03-05T02:08:48.011Z,7.31
2019-03-05T02:09:48.005Z,7.32
2019-03-05T02:10:47.998Z,7.39
2019-03-05T02:11:47.993Z,7.36
2019-03-05T02:12:47.985Z,7.40
2019-03-05T02:13:47.981Z,7.36
2019-03-05T02:14:47.971Z,7.40
2019-03-05T02:15:47.968Z,7.39
2019-03-05T02:16:47.958Z,7.45
2019-03-05T02:17:48.031Z,7.38
2019-03-05T02:18:47.946Z,7.39
2019-03-05T02:19:47.944Z,7.39
2019-03-05T02:20:47.933Z,7.40
2019-03-05T02:21:47.925Z,7.42
2019-03-05T02:22:47.919Z,7.45
2019-03-05T02:23:47.912Z,7.40
2019-03-05T02:24:47.905Z,7.43
2019-03-05T02:25:47.899Z,7.43
2019-03-05T02:26:47.892Z,7.47
2019-03-05T02:27:47.884Z,7.42
2019-03-05T02:28:47.878Z,7.43
2019-03-05T02:29:47.871Z,7.43
2019-03-05T02:30:47.867Z,7.53
2019-03-05T02:31:47.858Z,7.47
2019-03-05T02:32:47.854Z,7.48
2019-03-05T02:33:47.845Z,7.48
2019-03-05T02:34:47.840Z,7.39
2019-03-05T02:35:47.835Z,7.40
2019-03-05T02:36:47.833Z,7.42
2019-03-05T02:37:47.820Z,7.39
2019-03-05T02:38:47.813Z,7.47
2019-03-05T02:39:47.805Z,7.45
2019-03-05T02:40:47.805Z,7.38
2019-03-05T02:41:47.792Z,7.36
2019-03-05T02:42:47.786Z,7.31
2019-03-05T02:43:47.778Z,7.20
2019-03-05T02:44:47.772Z,7.17
2019-03-05T02:45:47.766Z,7.18
2019-03-05T02:46:47.759Z,7.21
2019-03-05T02:47:47.752Z,7.20
2019-03-05T02:48:47.745Z,7.10
2019-03-05T02:49:47.739Z,7.03
2019-03-05T02:50:47.733Z,7.03
2019-03-05T02:51:47.725Z,7.00
2019-03-05T02:52:47.719Z,6.88
2019-03-05T02:53:47.713Z,6.81
2019-03-05T02:54:47.706Z,6.82
2019-03-05T02:55:47.697Z,6.79
2019-03-05T02:56:47.697Z,6.74
2019-03-05T02:57:47.684Z,6.67
2019-03-05T02:58:47.682Z,6.67
2019-03-05T02:59:47.671Z,6.54
2019-03-05T03:00:47.664Z,6.62
2019-03-05T03:01:47.681Z,6.45
2019-03-05T03:02:47.652Z,6.41
2019-03-05T03:03:47.645Z,6.33
2019-03-05T03:04:47.642Z,6.28
2019-03-05T03:05:47.633Z,6.28
2019-03-05T03:06:47.625Z,6.14
2019-03-05T03:07:47.616Z,6.14
2019-03-05T03:08:47.610Z,6.16
2019-03-05T03:09:47.604Z,6.08
2019-03-05T03:10:47.599Z,6.09
2019-03-05T03:11:47.590Z,6.01
2019-03-05T03:12:47.589Z,5.97
2019-03-05T03:13:47.575Z,6.04
2019-03-05T03:14:47.572Z,6.02
2019-03-05T03:15:47.561Z,5.90
2019-03-05T03:16:47.556Z,5.99
2019-03-05T03:17:47.548Z,5.99
2019-03-05T03:18:47.541Z,5.99
2019-03-05T03:19:47.534Z,5.99
2019-03-05T03:20:47.527Z,6.02
2019-03-05T03:21:47.521Z,6.02
2019-03-05T03:22:47.516Z,5.99
2019-03-05T03:23:47.509Z,5.97
2019-03-05T03:24:47.512Z,5.90
2019-03-05T03:25:47.493Z,5.90
2019-03-05T03:26:47.485Z,5.84
2019-03-05T03:27:47.487Z,5.89
2019-03-05T03:28:47.471Z,5.98
2019-03-05T03:29:47.464Z,5.94
2019-03-05T03:30:47.458Z,5.93
2019-03-05T03:31:47.615Z,5.91
2019-03-05T03:32:47.446Z,5.86
2019-03-05T03:33:47.436Z,5.90
2019-03-05T03:34:47.433Z,5.87
2019-03-05T03:35:47.421Z,5.76
2019-03-05T03:36:47.413Z,5.87
2019-03-05T03:37:47.406Z,5.83
2019-03-05T03:38:47.402Z,5.83
2019-03-05T03:39:47.391Z,5.86
2019-03-05T03:40:47.387Z,5.80
2019-03-05T03:41:47.380Z,5.84
2019-03-05T03:42:47.372Z,5.83
2019-03-05T03:43:47.364Z,5.82
2019-03-05T03:44:47.421Z,5.83
2019-03-05T03:45:47.352Z,5.86
2019-03-05T03:46:47.347Z,5.80
2019-03-05T03:47:47.336Z,5.82
2019-03-05T03:48:47.333Z,5.87
2019-03-05T03:49:47.323Z,5.87
2019-03-05T03:50:47.318Z,5.93
2019-03-05T03:51:47.309Z,5.97
2019-03-05T03:52:47.302Z,5.93
2019-03-05T03:53:47.294Z,5.99
2019-03-05T03:54:47.291Z,6.04
2019-03-05T03:55:47.279Z,5.91
2019-03-05T03:56:47.270Z,5.99
2019-03-05T03:57:47.264Z,5.97
2019-03-05T03:58:47.256Z,5.97
2019-03-05T03:59:47.249Z,6.05
2019-03-05T04:00:47.241Z,6.14
2019-03-05T04:01:47.240Z,6.11
2019-03-05T04:02:47.228Z,6.11
2019-03-05T04:03:47.223Z,6.16
2019-03-05T04:04:47.213Z,6.17
2019-03-05T04:05:47.206Z,6.07
2019-03-05T04:06:47.202Z,6.17
2019-03-05T04:07:47.192Z,6.19
2019-03-05T04:08:47.188Z,6.19
2019-03-05T04:09:47.187Z,6.14
2019-03-05T04:10:47.172Z,6.17
2019-03-05T04:11:47.168Z,6.14
2019-03-05T04:12:47.158Z,6.16
2019-03-05T04:13:47.157Z,6.26
2019-03-05T04:14:47.148Z,6.27
2019-03-05T04:15:47.141Z,6.26
2019-03-05T04:16:47.130Z,6.14
2019-03-05T04:17:47.133Z,6.24
2019-03-05T04:18:47.114Z,6.24
2019-03-05T04:19:47.107Z,6.27
2019-03-05T04:20:47.100Z,6.24
2019-03-05T04:21:47.093Z,6.19
2019-03-05T04:22:47.086Z,6.22
2019-03-05T04:23:47.078Z,6.19
2019-03-05T04:24:47.071Z,6.20
2019-03-05T04:25:47.063Z,6.26
2019-03-05T04:26:47.056Z,6.26
2019-03-05T04:27:47.057Z,6.28
2019-03-05T04:28:47.043Z,6.20
2019-03-05T04:29:47.035Z,6.24
2019-03-05T04:30:47.028Z,6.28
2019-03-05T04:31:47.024Z,6.24
2019-03-05T04:32:47.014Z,6.26
2019-03-05T04:33:47.010Z,6.19
2019-03-05T04:34:46.999Z,6.19
2019-03-05T04:35:46.992Z,6.22
2019-03-05T04:36:46.984Z,6.24
2019-03-05T04:37:46.978Z,6.19
2019-03-05T04:38:46.972Z,6.24
2019-03-05T04:39:46.963Z,6.27
2019-03-05T04:40:46.956Z,6.31
2019-03-05T04:41:46.953Z,6.24
2019-03-05T04:42:46.947Z,6.27
2019-03-05T04:43:46.935Z,6.20
2019-03-05T04:44:46.928Z,6.16
2019-03-05T04:45:46.921Z,6.11
2019-03-05T04:46:46.914Z,6.16
2019-03-05T04:47:46.907Z,6.14
2019-03-05T04:48:46.901Z,6.12
2019-03-05T04:49:46.894Z,6.20
2019-03-05T04:50:46.887Z,6.12
2019-03-05T04:51:46.879Z,6.12
2019-03-05T04:52:46.872Z,6.09
2019-03-05T04:53:46.865Z,6.16
2019-03-05T04:54:46.859Z,6.20
2019-03-05T04:55:46.850Z,6.14
2019-03-05T04:56:46.846Z,6.14
2019-03-05T04:57:46.837Z,6.26
2019-03-05T04:58:46.829Z,6.30
2019-03-05T04:59:46.825Z,6.24
2019-03-05T05:00:46.814Z,6.19
2019-03-05T05:01:46.810Z,6.27
2019-03-05T05:02:46.801Z,6.30
2019-03-05T05:03:46.794Z,6.22
2019-03-05T05:04:46.787Z,6.30
2019-03-05T05:05:46.780Z,6.17
2019-03-05T05:06:46.774Z,6.24
2019-03-05T05:07:46.769Z,6.24
2019-03-05T05:08:46.758Z,6.28
2019-03-05T05:09:46.750Z,6.27
2019-03-05T05:10:46.745Z,6.24
2019-03-05T05:11:46.736Z,6.27
2019-03-05T05:12:46.730Z,6.20
2019-03-05T05:13:46.723Z,6.24
2019-03-05T05:14:46.715Z,6.26
2019-03-05T05:15:46.714Z,6.27
2019-03-05T05:16:46.702Z,6.27
2019-03-05T05:17:46.695Z,6.17
2019-03-05T05:18:46.688Z,6.31
2019-03-05T05:19:46.680Z,6.33
2019-03-05T05:20:46.672Z,6.19
2019-03-05T05:21:46.665Z,6.30
2019-03-05T05:22:46.659Z,6.24
2019-03-05T05:23:46.652Z,6.17
2019-03-05T05:24:46.644Z,6.11
2019-03-05T05:25:46.638Z,6.02
2019-03-05T05:26:46.631Z,6.12
2019-03-05T05:27:46.622Z,6.12
2019-03-05T05:28:46.616Z,6.08
2019-03-05T05:29:46.608Z,6.16
2019-03-05T05:30:46.603Z,6.17
2019-03-05T05:31:46.595Z,6.14
2019-03-05T05:32:46.587Z,6.17
2019-03-05T05:33:46.582Z,6.14
2019-03-05T05:34:46.574Z,6.14
2019-03-05T05:35:46.573Z,6.20
2019-03-05T05:36:46.560Z,6.14
2019-03-05T05:37:46.555Z,6.11
2019-03-05T05:38:46.545Z,6.14
2019-03-05T05:39:46.541Z,6.20
2019-03-05T05:40:46.534Z,6.20
2019-03-05T05:41:46.523Z,6.20
2019-03-05T05:42:46.516Z,6.27
2019-03-05T05:43:46.515Z,6.17
2019-03-05T05:44:46.502Z,6.22
2019-03-05T05:45:46.572Z,6.28
2019-03-05T05:46:46.488Z,6.19
2019-03-05T05:47:46.481Z,6.19
2019-03-05T05:48:46.473Z,6.17
2019-03-05T05:49:46.468Z,6.26
2019-03-05T05:50:46.460Z,6.30
2019-03-05T05:51:46.451Z,6.22
2019-03-05T05:52:46.449Z,6.19
2019-03-05T05:53:46.437Z,6.24
2019-03-05T05:54:46.430Z,6.31
2019-03-05T05:55:46.424Z,6.28
2019-03-05T05:56:46.416Z,6.26
2019-03-05T05:57:46.482Z,6.20
2019-03-05T05:58:46.403Z,6.24
2019-03-05T05:59:46.395Z,6.20
2019-03-05T06:00:46.388Z,6.26
2019-03-05T06:01:46.382Z,6.27
2019-03-05T06:02:46.375Z,6.30
2019-03-05T06:03:46.368Z,6.20
2019-03-05T06:04:46.361Z,6.08
2019-03-05T06:05:46.353Z,6.04
2019-03-05T06:06:46.347Z,5.86
2019-03-05T06:07:46.338Z,5.91
2019-03-05T06:08:46.331Z,5.93
2019-03-05T06:09:46.327Z,5.82
2019-03-05T06:10:46.317Z,5.80
2019-03-05T06:11:46.309Z,5.82
2019-03-05T06:12:46.303Z,5.86
2019-03-05T06:13:46.296Z,5.82
2019-03-05T06:14:46.289Z,5.83
2019-03-05T06:15:46.282Z,5.91
2019-03-05T06:16:46.273Z,5.83
2019-03-05T06:17:46.268Z,5.90
2019-03-05T06:18:46.261Z,5.86
2019-03-05T06:19:46.253Z,5.80
2019-03-05T06:20:46.248Z,5.82
2019-03-05T06:21:46.239Z,5.82
2019-03-05T06:22:46.239Z,5.82
2019-03-05T06:23:46.223Z,5.73
2019-03-05T06:24:46.216Z,5.76
2019-03-05T06:25:46.217Z,5.73
2019-03-05T06:26:46.203Z,5.76
2019-03-05T06:27:46.194Z,5.72
2019-03-05T06:28:46.187Z,5.73
2019-03-05T06:29:46.180Z,5.73
2019-03-05T06:30:46.175Z,5.76
2019-03-05T06:31:46.164Z,5.76
2019-03-05T06:32:46.159Z,5.80
2019-03-05T06:33:46.151Z,5.86
2019-03-05T06:34:46.144Z,5.93
2019-03-05T06:35:46.137Z,5.97
2019-03-05T06:36:46.129Z,5.97
2019-03-05T06:37:46.122Z,6.17
2019-03-05T06:38:46.114Z,6.09
2019-03-05T06:39:46.107Z,6.16
2019-03-05T06:40:46.099Z,6.19
2019-03-05T06:41:46.095Z,6.12
2019-03-05T06:42:46.086Z,6.17
2019-03-05T06:43:46.078Z,6.16
2019-03-05T06:44:46.073Z,6.11
2019-03-05T06:45:46.066Z,6.09
2019-03-05T06:46:46.057Z,6.14
2019-03-05T06:47:46.048Z,6.01
2019-03-05T06:48:46.042Z,6.02
2019-03-05T06:49:46.034Z,5.97
2019-03-05T06:50:46.029Z,6.04
2019-03-05T06:51:46.019Z,5.98
2019-03-05T06:52:46.014Z,5.99
2019-03-05T06:53:46.005Z,5.91
2019-03-05T06:54:45.999Z,6.01
2019-03-05T06:55:45.994Z,5.99
2019-03-05T06:56:45.984Z,5.83
2019-03-05T06:57:45.977Z,5.82
2019-03-05T06:58:45.970Z,5.91
2019-03-05T06:59:45.962Z,5.91
2019-03-05T07:00:45.955Z,5.98
2019-03-05T07:01:45.948Z,5.94
2019-03-05T07:02:45.940Z,5.99
2019-03-05T07:03:45.932Z,6.04
2019-03-05T07:04:45.925Z,6.05
2019-03-05T07:05:45.922Z,6.09
2019-03-05T07:06:45.913Z,6.12
2019-03-05T07:07:45.904Z,6.09
2019-03-05T07:08:45.897Z,6.14
2019-03-05T07:09:45.896Z,6.28
2019-03-05T07:10:45.882Z,6.12
2019-03-05T07:11:45.878Z,6.20
2019-03-05T07:12:45.872Z,6.24
2019-03-05T07:13:45.862Z,6.33
2019-03-05T07:14:45.857Z,6.20
2019-03-05T07:15:45.846Z,6.24
2019-03-05T07:16:45.840Z,6.28
2019-03-05T07:17:45.832Z,6.22
2019-03-05T07:18:45.827Z,6.38
2019-03-05T07:19:54.535Z,6.28
2019-03-05T07:20:45.815Z,6.35
2019-03-05T07:21:45.805Z,6.33
2019-03-05T07:22:45.798Z,6.33
2019-03-05T07:23:45.790Z,6.28
2019-03-05T07:24:45.785Z,6.26
2019-03-05T07:25:45.777Z,6.28
2019-03-05T07:26:45.770Z,6.31
2019-03-05T07:27:45.763Z,6.31
2019-03-05T07:28:45.755Z,6.27
2019-03-05T07:29:45.749Z,6.30
2019-03-05T07:30:45.742Z,6.28
2019-03-05T07:31:45.734Z,6.30
2019-03-05T07:32:45.727Z,6.31
2019-03-05T07:33:45.721Z,6.24
2019-03-05T07:34:45.714Z,6.31
2019-03-05T07:35:45.706Z,6.31
2019-03-05T07:36:45.699Z,6.35
2019-03-05T07:37:45.692Z,6.42
2019-03-05T07:38:45.686Z,6.41
2019-03-05T07:39:45.680Z,6.36
2019-03-05T07:40:45.677Z,6.45
2019-03-05T07:41:48.134Z,6.48
2019-03-05T07:42:45.658Z,6.49
2019-03-05T07:43:45.652Z,6.45
2019-03-05T07:44:45.643Z,6.44
2019-03-05T07:45:45.636Z,6.48
2019-03-05T07:46:45.631Z,6.60
2019-03-05T07:47:45.623Z,6.60
2019-03-05T07:48:45.615Z,6.66
2019-03-05T07:49:45.609Z,6.64
2019-03-05T07:50:45.603Z,6.69
2019-03-05T07:51:45.596Z,6.64
2019-03-05T07:52:45.591Z,6.74
2019-03-05T07:53:45.581Z,6.64
2019-03-05T07:54:45.575Z,6.64
2019-03-05T07:55:45.568Z,6.69
2019-03-05T07:56:45.567Z,6.72
2019-03-05T07:57:45.555Z,6.69
2019-03-05T07:58:45.548Z,6.75
2019-03-05T07:59:45.541Z,6.72
2019-03-05T08:00:45.535Z,6.72
2019-03-05T08:01:45.528Z,6.78
2019-03-05T08:02:45.522Z,6.85
2019-03-05T08:03:45.513Z,6.77
2019-03-05T08:04:45.509Z,6.84
2019-03-05T08:05:47.434Z,6.75
2019-03-05T08:06:45.494Z,6.79
2019-03-05T08:07:45.488Z,6.72
2019-03-05T08:08:45.483Z,6.74
2019-03-05T08:09:45.478Z,6.72
2019-03-05T08:10:45.467Z,6.75
2019-03-05T08:11:45.459Z,6.77
2019-03-05T08:12:45.454Z,6.77
2019-03-05T08:13:45.451Z,6.75
2019-03-05T08:14:45.441Z,6.72
2019-03-05T08:15:45.433Z,6.72
2019-03-05T08:16:45.429Z,6.69
2019-03-05T08:17:47.013Z,6.70
2019-03-05T08:18:45.414Z,6.70
2019-03-05T08:19:45.407Z,6.66
2019-03-05T08:20:45.403Z,6.64
2019-03-05T08:21:45.395Z,7.03
2019-03-05T08:22:45.388Z,7.23
2019-03-05T08:23:48.253Z,7.33
2019-03-05T08:24:45.376Z,7.28
2019-03-05T08:25:45.369Z,6.89
2019-03-05T08:26:45.361Z,6.95
2019-03-05T08:27:45.355Z,6.82
2019-03-05T08:28:45.349Z,6.77
2019-03-05T08:29:45.344Z,6.70
2019-03-05T08:30:45.334Z,6.63
2019-03-05T08:31:45.332Z,6.60
2019-03-05T08:32:45.323Z,6.62
2019-03-05T08:33:45.315Z,6.62
2019-03-05T08:34:45.308Z,6.56
2019-03-05T08:35:45.303Z,6.63
2019-03-05T08:36:45.295Z,6.70
2019-03-05T08:37:45.288Z,6.70
2019-03-05T08:38:45.283Z,6.72
2019-03-05T08:39:45.278Z,6.69
2019-03-05T08:40:45.268Z,6.64
2019-03-05T08:41:45.265Z,6.70
2019-03-05T08:42:45.256Z,6.64
2019-03-05T08:43:45.250Z,6.75
2019-03-05T08:44:50.434Z,6.75
2019-03-05T08:45:45.236Z,6.72
2019-03-05T08:46:45.232Z,6.66
2019-03-05T08:47:45.223Z,6.67
2019-03-05T08:48:45.216Z,6.66
2019-03-05T08:49:45.211Z,6.62
2019-03-05T08:50:45.204Z,6.51
2019-03-05T08:51:45.197Z,6.57
2019-03-05T08:52:45.193Z,6.56
2019-03-05T08:53:49.533Z,6.78
2019-03-05T08:54:45.572Z,6.70
2019-03-05T08:55:45.171Z,6.88
2019-03-05T08:56:45.163Z,7.23
2019-03-05T08:57:45.158Z,7.15
2019-03-05T08:58:45.152Z,7.14
2019-03-05T08:59:45.146Z,7.15
2019-03-05T09:00:45.138Z,6.88
2019-03-05T09:01:45.132Z,6.77
2019-03-05T09:02:48.645Z,6.72
2019-03-05T09:03:45.119Z,6.81
2019-03-05T09:04:45.112Z,6.85
2019-03-05T09:05:45.108Z,6.93
2019-03-05T09:06:45.100Z,7.05
2019-03-05T09:07:45.092Z,6.93
2019-03-05T09:08:45.087Z,6.88
2019-03-05T09:09:45.081Z,6.88
2019-03-05T09:10:45.076Z,6.92
2019-03-05T09:11:45.068Z,6.89
2019-03-05T09:12:45.063Z,6.93
2019-03-05T09:13:45.058Z,6.95
2019-03-05T09:14:45.050Z,6.92
2019-03-05T09:15:45.043Z,6.88
2019-03-05T09:16:45.038Z,6.88
2019-03-05T09:17:45.031Z,6.92
2019-03-05T09:18:45.024Z,7.03
2019-03-05T09:19:45.018Z,7.06
2019-03-05T09:20:45.012Z,7.18
2019-03-05T09:21:45.005Z,7.06
2019-03-05T09:22:45.001Z,7.11
2019-03-05T09:23:44.996Z,7.05
2019-03-05T09:24:44.987Z,7.07
2019-03-05T09:25:44.982Z,7.17
2019-03-05T09:26:51.235Z,7.05
2019-03-05T09:27:44.967Z,7.00
2019-03-05T09:28:44.963Z,6.92
2019-03-05T09:29:44.956Z,6.96
2019-03-05T09:30:44.979Z,6.97
2019-03-05T09:31:44.944Z,7.07
2019-03-05T09:32:44.940Z,7.06
2019-03-05T09:33:44.932Z,7.05
2019-03-05T09:34:44.926Z,7.20
2019-03-05T09:35:44.918Z,7.02
2019-03-05T09:36:50.958Z,7.06
2019-03-05T09:37:44.906Z,7.07
2019-03-05T09:38:44.899Z,6.95
2019-03-05T09:39:44.892Z,6.96
2019-03-05T09:40:44.889Z,6.81
2019-03-05T09:41:44.880Z,6.77
2019-03-05T09:42:44.875Z,6.69
2019-03-05T09:43:44.872Z,6.63
2019-03-05T09:44:44.862Z,6.75
2019-03-05T09:45:44.856Z,6.64
2019-03-05T09:46:44.849Z,6.72
2019-03-05T09:47:44.843Z,6.67
2019-03-05T09:48:44.835Z,6.77
2019-03-05T09:49:44.832Z,6.79
2019-03-05T09:50:44.824Z,6.77
2019-03-05T09:51:44.880Z,6.84
2019-03-05T09:52:54.530Z,6.88
2019-03-05T09:53:44.805Z,6.93
2019-03-05T09:54:44.800Z,6.92
2019-03-05T09:55:44.791Z,6.92
2019-03-05T09:56:44.784Z,6.89
2019-03-05T09:57:44.777Z,7.03
2019-03-05T09:58:44.773Z,6.95
2019-03-05T09:59:44.764Z,6.97
2019-03-05T10:00:44.761Z,6.89
2019-03-05T10:01:44.753Z,6.85
2019-03-05T10:02:44.746Z,6.96
2019-03-05T10:03:44.740Z,7.00
2019-03-05T10:04:44.732Z,6.85
2019-03-05T10:05:44.728Z,6.92
2019-03-05T10:06:44.720Z,6.92
2019-03-05T10:07:44.715Z,7.10
2019-03-05T10:08:44.708Z,7.18
2019-03-05T10:09:44.701Z,7.21
2019-03-05T10:10:44.696Z,7.17
2019-03-05T10:11:44.688Z,7.15
2019-03-05T10:12:44.682Z,7.20
2019-03-05T10:13:44.676Z,7.20
2019-03-05T10:14:44.669Z,7.35
2019-03-05T10:15:44.664Z,7.47
2019-03-05T10:16:44.657Z,7.33
2019-03-05T10:17:44.650Z,7.38
2019-03-05T10:18:44.645Z,7.32
2019-03-05T10:19:44.638Z,7.33
2019-03-05T10:20:44.632Z,7.35
2019-03-05T10:21:46.593Z,7.28
2019-03-05T10:22:44.620Z,7.24
2019-03-05T10:23:44.613Z,7.23
2019-03-05T10:24:44.607Z,7.32
2019-03-05T10:25:44.601Z,7.40
2019-03-05T10:26:44.594Z,7.54
2019-03-05T10:27:44.588Z,7.57
2019-03-05T10:28:44.582Z,7.69
2019-03-05T10:29:44.575Z,7.76
2019-03-05T10:30:44.568Z,7.72
2019-03-05T10:31:44.628Z,7.79
2019-03-05T10:32:44.556Z,7.82
2019-03-05T10:33:44.552Z,7.94
2019-03-05T10:34:44.544Z,7.82
2019-03-05T10:35:44.537Z,7.79
2019-03-05T10:36:44.531Z,7.82
2019-03-05T10:37:44.530Z,7.79
2019-03-05T10:38:44.519Z,7.70
2019-03-05T10:39:44.514Z,7.70
2019-03-05T10:40:44.508Z,7.73
2019-03-05T10:41:44.503Z,7.98
2019-03-05T10:42:44.496Z,7.88
2019-03-05T10:43:44.489Z,8.03
2019-03-05T10:44:44.483Z,8.03
2019-03-05T10:45:44.480Z,8.08
2019-03-05T10:46:44.472Z,8.06
2019-03-05T10:47:44.466Z,7.95
2019-03-05T10:48:44.462Z,8.01
2019-03-05T10:49:44.454Z,8.06
2019-03-05T10:50:44.450Z,7.95
2019-03-05T10:51:44.442Z,7.93
2019-03-05T10:52:44.437Z,8.03
2019-03-05T10:53:44.431Z,7.98
2019-03-05T10:54:44.445Z,8.13
2019-03-05T10:55:44.419Z,8.18
2019-03-05T10:56:44.413Z,8.31
2019-03-05T10:57:44.524Z,8.37
2019-03-05T10:58:44.401Z,8.44
2019-03-05T10:59:44.467Z,8.41
2019-03-05T11:00:44.390Z,8.45
2019-03-05T11:01:44.385Z,8.41
2019-03-05T11:02:44.380Z,8.46
2019-03-05T11:03:44.375Z,8.67
2019-03-05T11:04:45.966Z,8.82
2019-03-05T11:05:44.362Z,8.82
2019-03-05T11:06:44.357Z,9.32
2019-03-05T11:07:44.350Z,9.55
2019-03-05T11:08:44.346Z,9.73
2019-03-05T11:09:44.339Z,9.37
2019-03-05T11:10:44.335Z,9.13
2019-03-05T11:11:44.328Z,9.16
2019-03-05T11:12:44.324Z,9.40
2019-03-05T11:13:44.319Z,9.39
2019-03-05T11:14:44.314Z,9.29
2019-03-05T11:15:44.307Z,8.94
2019-03-05T11:16:44.302Z,8.78
2019-03-05T11:17:44.302Z,8.67
2019-03-05T11:18:44.293Z,8.79
2019-03-05T11:19:44.287Z,8.74
2019-03-05T11:20:44.284Z,8.71
2019-03-05T11:21:44.280Z,8.67
2019-03-05T11:22:44.272Z,8.64
2019-03-05T11:23:44.268Z,8.52
2019-03-05T11:24:44.262Z,8.51
2019-03-05T11:25:44.258Z,8.41
2019-03-05T11:26:44.253Z,8.46
2019-03-05T11:27:44.246Z,8.49
2019-03-05T11:28:44.242Z,8.61
2019-03-05T11:29:44.236Z,8.58
2019-03-05T11:30:44.232Z,8.52
2019-03-05T11:31:44.228Z,8.61
2019-03-05T11:32:44.223Z,8.53
2019-03-05T11:33:44.217Z,8.67
2019-03-05T11:34:44.211Z,8.73
2019-03-05T11:35:44.209Z,8.89
2019-03-05T11:36:44.201Z,9.16
2019-03-05T11:37:44.195Z,9.26
2019-03-05T11:38:44.192Z,9.11
2019-03-05T11:39:44.183Z,9.04
2019-03-05T11:40:44.180Z,9.06
2019-03-05T11:41:44.174Z,8.97
2019-03-05T11:42:44.168Z,9.06
2019-03-05T11:43:44.162Z,9.00
2019-03-05T11:44:55.736Z,9.14
2019-03-05T11:45:44.152Z,9.19
2019-03-05T11:46:44.147Z,9.28
2019-03-05T11:47:44.141Z,9.08
2019-03-05T11:48:44.137Z,9.11
2019-03-05T11:49:44.132Z,8.99
2019-03-05T11:50:44.126Z,8.87
2019-03-05T11:51:44.120Z,8.88
2019-03-05T11:52:44.117Z,8.82
2019-03-05T11:53:44.112Z,8.78
2019-03-05T11:54:44.109Z,8.70
2019-03-05T11:55:44.102Z,8.95
2019-03-05T11:56:44.097Z,9.13
2019-03-05T11:57:44.091Z,9.31
2019-03-05T11:58:44.085Z,9.43
2019-03-05T11:59:44.081Z,9.98
2019-03-05T12:00:44.074Z,9.69
2019-03-05T12:01:44.069Z,9.66
2019-03-05T12:02:44.066Z,9.66
2019-03-05T12:03:44.061Z,9.79
2019-03-05T12:04:44.058Z,9.94
2019-03-05T12:05:44.050Z,9.72
2019-03-05T12:06:44.045Z,9.65
2019-03-05T12:07:46.086Z,9.66
2019-03-05T12:08:44.034Z,9.50
2019-03-05T12:09:44.031Z,9.48
2019-03-05T12:10:44.026Z,9.29
2019-03-05T12:11:44.021Z,9.29
2019-03-05T12:12:44.016Z,9.28
2019-03-05T12:13:44.012Z,9.29
2019-03-05T12:14:44.007Z,9.18
2019-03-05T12:15:44.000Z,9.25
2019-03-05T12:16:43.997Z,9.14
2019-03-05T12:17:43.992Z,9.19
2019-03-05T12:18:43.988Z,9.13
2019-03-05T12:19:43.982Z,9.19
2019-03-05T12:20:43.977Z,9.23
2019-03-05T12:21:43.974Z,9.25
2019-03-05T12:22:43.967Z,9.18
2019-03-05T12:23:47.174Z,9.19
2019-03-05T12:24:43.956Z,9.14
2019-03-05T12:25:43.952Z,9.16
2019-03-05T12:26:43.947Z,9.13
2019-03-05T12:27:43.943Z,9.23
2019-03-05T12:28:43.946Z,9.18
2019-03-05T12:29:43.933Z,9.13
2019-03-05T12:30:43.928Z,9.13
2019-03-05T12:31:43.921Z,9.21
2019-03-05T12:32:43.918Z,9.25
2019-03-05T12:33:43.915Z,9.28
2019-03-05T12:34:43.912Z,9.23
2019-03-05T12:35:43.901Z,9.23
2019-03-05T12:36:43.899Z,9.11
2019-03-05T12:37:43.895Z,9.21
2019-03-05T12:38:46.086Z,9.37
2019-03-05T12:39:43.881Z,9.28
2019-03-05T12:40:43.875Z,9.56
2019-03-05T12:41:43.873Z,9.62
2019-03-05T12:42:43.865Z,9.48
2019-03-05T12:43:43.864Z,9.50
2019-03-05T12:44:43.860Z,9.58
2019-03-05T12:45:43.852Z,9.68
2019-03-05T12:46:43.846Z,9.62
2019-03-05T12:47:43.840Z,9.51
2019-03-05T12:48:43.835Z,9.50
2019-03-05T12:49:43.831Z,9.54
2019-03-05T12:50:43.825Z,9.64
2019-03-05T12:51:43.820Z,9.64
2019-03-05T12:52:43.816Z,9.54
2019-03-05T12:53:43.811Z,9.40
2019-03-05T12:54:43.806Z,9.51
2019-03-05T12:55:43.800Z,9.50
2019-03-05T12:56:43.794Z,9.51
2019-03-05T12:57:43.791Z,9.54
2019-03-05T12:58:43.785Z,9.54
2019-03-05T12:59:43.780Z,9.56
2019-03-05T13:00:43.774Z,9.54
2019-03-05T13:01:43.770Z,9.59
2019-03-05T13:02:43.766Z,9.73
2019-03-05T13:03:43.760Z,9.65
2019-03-05T13:04:43.756Z,9.69
2019-03-05T13:05:43.751Z,9.69
2019-03-05T13:06:43.745Z,9.65
2019-03-05T13:07:43.741Z,9.69
2019-03-05T13:08:43.736Z,9.69
2019-03-05T13:09:45.372Z,9.68
2019-03-05T13:10:45.233Z,9.66
2019-03-05T13:11:46.543Z,9.68
2019-03-05T13:12:43.716Z,9.83
2019-03-05T13:13:43.744Z,9.84
2019-03-05T13:14:43.864Z,9.83
2019-03-05T13:15:43.700Z,9.97
2019-03-05T13:16:43.695Z,9.94
2019-03-05T13:17:47.179Z,10.05
2019-03-05T13:18:43.686Z,10.09